Waverly, Pennsylvania
Current Conditions -  °F | °C
As of 6:12 PM on Tuesday 27 Jan 2015 (Local Time) from KAVP Reporting Station
Overcast Overcast  
Wind Chill:   Ceiling: 2900
Heat Index: 16°   Visibility: 10mi
Dew Point:   Wind: 14mph
Humidity: 59%   Direction: 340°NNW
Pressure: 29.84"   Gusts: 23mph
Location:  41.53°N, 75.71°W
Report Text: KAVP 272312Z 34012G20KT 10SM BKN029 OVC041 M09/M16 A2984 RMK AO2 T10891156
Loading
Personal Weather Stations






























Interactive Weather Map New forecast layout! Learn more

10-Day Weather Forecast

Advertisements
Track Severe Weather on mobile